createdAt,value
2019-01-12T00:00:03.026Z,90.69
2019-01-12T00:05:03.060Z,90.68
2019-01-12T00:10:02.480Z,90.66
2019-01-12T00:15:02.814Z,90.64
2019-01-12T00:20:03.296Z,90.63
2019-01-12T00:25:02.717Z,90.63
2019-01-12T00:30:03.130Z,90.63
2019-01-12T00:35:02.529Z,90.61
2019-01-12T00:40:02.908Z,90.61
2019-01-12T00:45:03.337Z,90.58
2019-01-12T00:50:02.745Z,90.58
2019-01-12T00:55:03.096Z,90.57
2019-01-12T01:00:02.509Z,90.57
2019-01-12T01:05:02.845Z,90.55
2019-01-12T01:10:03.288Z,90.57
2019-01-12T01:15:02.713Z,90.55
2019-01-12T01:20:03.056Z,90.55
2019-01-12T01:25:02.480Z,90.53
2019-01-12T01:30:02.108Z,90.54
2019-01-12T01:35:02.540Z,90.53
2019-01-12T01:40:02.983Z,90.53
2019-01-12T01:45:02.406Z,90.55
2019-01-12T01:50:02.848Z,90.56
2019-01-12T01:55:03.292Z,90.57
2019-01-12T02:00:02.695Z,90.57
2019-01-12T02:05:03.052Z,90.58
2019-01-12T02:10:02.463Z,90.6
2019-01-12T02:15:02.851Z,90.6
2019-01-12T02:20:03.256Z,90.6
2019-01-12T02:25:02.617Z,90.59
2019-01-12T02:30:03.015Z,90.6
2019-01-12T02:35:02.430Z,90.59
2019-01-12T02:40:02.875Z,90.58
2019-01-12T02:45:03.224Z,90.58
2019-01-12T02:50:02.622Z,90.55
2019-01-12T02:55:08.677Z,90.57
2019-01-12T03:00:02.593Z,90.55
2019-01-12T03:05:02.938Z,90.55
2019-01-12T03:10:02.361Z,90.57
2019-01-12T03:15:02.697Z,90.55
2019-01-12T03:20:03.078Z,90.55
2019-01-12T03:25:02.497Z,90.56
2019-01-12T03:30:02.833Z,90.56
2019-01-12T03:35:03.331Z,90.54
2019-01-12T03:40:02.768Z,90.54
2019-01-12T03:45:03.212Z,90.54
2019-01-12T03:50:02.618Z,90.53
2019-01-12T03:55:02.969Z,90.5
2019-01-12T04:00:03.410Z,90.52
2019-01-12T04:05:02.848Z,90.49
2019-01-12T04:10:03.656Z,90.49
2019-01-12T04:15:02.335Z,90.48
2019-01-12T04:20:02.719Z,90.45
2019-01-12T04:25:03.070Z,90.46
2019-01-12T04:30:02.485Z,90.45
2019-01-12T04:35:02.835Z,90.44
2019-01-12T04:40:03.298Z,90.43
2019-01-12T04:45:02.689Z,90.45
2019-01-12T04:50:03.179Z,90.44
2019-01-12T04:55:02.582Z,90.45
2019-01-12T05:00:03.011Z,90.45
2019-01-12T05:05:02.653Z,90.45
2019-01-12T05:10:03.066Z,90.46
2019-01-12T05:15:02.479Z,90.45
2019-01-12T05:20:02.825Z,90.47
2019-01-12T05:25:03.288Z,90.48
2019-01-12T05:30:02.994Z,90.46
2019-01-12T05:35:02.410Z,90.45
2019-01-12T05:40:02.870Z,90.47
2019-01-12T05:45:03.346Z,90.47
2019-01-12T05:50:02.743Z,90.48
2019-01-12T05:55:03.166Z,90.48
2019-01-12T06:00:02.572Z,90.47
2019-01-12T06:05:02.924Z,90.5
2019-01-12T06:10:02.338Z,90.48
2019-01-12T06:15:02.679Z,90.5
2019-01-12T06:20:03.023Z,90.51
2019-01-12T06:25:02.445Z,90.48
2019-01-12T06:30:02.887Z,90.51
2019-01-12T06:35:03.239Z,90.48
2019-01-12T06:40:02.645Z,90.49
2019-01-12T06:45:03.016Z,90.48
2019-01-12T06:50:02.402Z,90.46
2019-01-12T06:55:02.784Z,90.46
2019-01-12T07:00:03.192Z,90.47
2019-01-12T07:05:02.614Z,90.45
2019-01-12T07:10:03.052Z,90.44
2019-01-12T07:15:02.480Z,90.45
2019-01-12T07:20:02.018Z,90.44
2019-01-12T07:25:01.676Z,90.44
2019-01-12T07:30:03.085Z,90.45
2019-01-12T07:35:02.509Z,90.45
2019-01-12T07:40:02.944Z,90.45
2019-01-12T07:45:03.291Z,90.44
2019-01-12T07:50:02.700Z,90.45
2019-01-12T07:55:03.155Z,90.45
2019-01-12T08:00:02.572Z,90.44
2019-01-12T08:05:02.923Z,90.45
2019-01-12T08:10:02.332Z,90.44
2019-01-12T08:15:02.775Z,90.46
2019-01-12T08:20:03.259Z,90.45
2019-01-12T08:25:02.665Z,90.44
2019-01-12T08:30:03.080Z,90.46
2019-01-12T08:35:02.500Z,90.46
2019-01-12T08:40:02.947Z,90.46
2019-01-12T08:45:03.389Z,90.44
2019-01-12T08:50:02.811Z,90.45
2019-01-12T08:55:03.259Z,90.45
2019-01-12T09:00:02.785Z,90.44
2019-01-12T09:05:03.219Z,90.44
2019-01-12T09:10:02.624Z,90.43
2019-01-12T09:15:03.075Z,90.44
2019-01-12T09:20:02.490Z,90.45
2019-01-12T09:25:02.918Z,90.47
2019-01-12T09:30:03.390Z,90.46
2019-01-12T09:35:02.790Z,90.47
2019-01-12T09:40:03.249Z,90.47
2019-01-12T09:45:01.774Z,90.47
2019-01-12T09:50:03.210Z,90.47
2019-01-12T09:55:02.616Z,90.48
2019-01-12T10:00:02.967Z,90.47
2019-01-12T10:05:02.383Z,90.49
2019-01-12T10:10:02.826Z,90.48
2019-01-12T10:15:03.208Z,90.49
2019-01-12T10:20:02.583Z,90.48
2019-01-12T10:25:02.964Z,90.5
2019-01-12T10:30:03.394Z,90.51
2019-01-12T10:35:02.784Z,90.49
2019-01-12T10:40:03.234Z,90.51
2019-01-12T10:45:02.693Z,90.54
2019-01-12T10:50:03.106Z,90.54
2019-01-12T10:55:02.523Z,90.52
2019-01-12T11:00:02.967Z,90.53
2019-01-12T11:05:03.310Z,90.5
2019-01-12T11:10:04.292Z,90.48
2019-01-12T11:15:02.957Z,90.52
2019-01-12T11:20:03.304Z,90.52
2019-01-12T11:25:02.723Z,90.52
2019-01-12T11:30:03.065Z,90.52
2019-01-12T11:35:02.480Z,90.52
2019-01-12T11:40:02.993Z,90.52
2019-01-12T11:45:02.445Z,90.56
2019-01-12T11:50:02.893Z,90.55
2019-01-12T11:55:03.233Z,90.59
2019-01-12T12:00:02.651Z,90.58
2019-01-12T12:05:03.097Z,90.61
2019-01-12T12:10:02.481Z,90.59
2019-01-12T12:15:02.906Z,90.59
2019-01-12T12:20:02.489Z,90.6
2019-01-12T12:25:02.934Z,90.63
2019-01-12T12:30:03.362Z,90.62
2019-01-12T12:35:02.702Z,90.64
2019-01-12T12:40:03.121Z,90.65
2019-01-12T12:45:02.530Z,90.82
2019-01-12T12:50:02.868Z,90.88
2019-01-12T12:55:03.220Z,90.99
2019-01-12T13:00:02.632Z,90.97
2019-01-12T13:05:03.013Z,90.95
2019-01-12T13:10:02.500Z,90.94
2019-01-12T13:15:02.885Z,90.95
2019-01-12T13:20:03.217Z,90.95
2019-01-12T13:25:02.596Z,90.95
2019-01-12T13:30:02.950Z,90.98
2019-01-12T13:35:03.288Z,90.97
2019-01-12T13:40:02.695Z,90.97
2019-01-12T13:45:03.042Z,91.0
2019-01-12T13:50:02.464Z,91.01
2019-01-12T13:55:02.911Z,91.06
2019-01-12T14:00:03.246Z,91.08
2019-01-12T14:05:02.686Z,91.13
2019-01-12T14:10:03.153Z,91.16
2019-01-12T14:15:02.559Z,91.18
2019-01-12T14:20:02.999Z,91.2
2019-01-12T14:25:02.436Z,91.23
2019-01-12T14:30:02.841Z,91.24
2019-01-12T14:35:03.177Z,91.25
2019-01-12T14:40:02.586Z,91.26
2019-01-12T14:45:02.934Z,91.29
2019-01-12T14:50:03.275Z,91.31
2019-01-12T14:55:02.697Z,91.31
2019-01-12T15:00:03.143Z,91.32
2019-01-12T15:05:01.775Z,91.29
2019-01-12T15:10:03.199Z,91.3
2019-01-12T15:15:02.539Z,91.29
2019-01-12T15:20:02.972Z,91.26
2019-01-12T15:25:02.385Z,91.26
2019-01-12T15:30:02.703Z,91.28
2019-01-12T15:35:03.071Z,91.24
2019-01-12T15:40:02.482Z,91.25
2019-01-12T15:45:02.830Z,91.22
2019-01-12T15:50:03.205Z,91.21
2019-01-12T15:55:02.624Z,91.19
2019-01-12T16:00:03.030Z,91.19
2019-01-12T16:05:02.452Z,91.15
2019-01-12T16:10:02.893Z,91.14
2019-01-12T16:15:03.255Z,91.14
2019-01-12T16:20:02.644Z,91.13
2019-01-12T16:25:03.008Z,91.11
2019-01-12T16:30:02.408Z,91.1
2019-01-12T16:35:02.754Z,91.13
2019-01-12T16:40:03.201Z,91.13
2019-01-12T16:45:02.612Z,91.15
2019-01-12T16:50:02.956Z,91.12
2019-01-12T16:55:03.336Z,91.12
2019-01-12T17:00:02.751Z,91.1
2019-01-12T17:05:03.159Z,91.1
2019-01-12T17:10:02.581Z,91.08
2019-01-12T17:15:02.932Z,91.08
2019-01-12T17:20:03.368Z,91.09
2019-01-12T17:25:02.784Z,91.06
2019-01-12T17:30:03.135Z,91.06
2019-01-12T17:35:02.543Z,91.06
2019-01-12T17:40:02.189Z,91.06
2019-01-12T17:45:02.607Z,91.07
2019-01-12T17:50:02.947Z,91.06
2019-01-12T17:55:03.282Z,91.04
2019-01-12T18:00:02.709Z,91.06
2019-01-12T18:05:03.056Z,91.06
2019-01-12T18:10:02.467Z,91.04
2019-01-12T18:15:02.807Z,91.01
2019-01-12T18:20:03.252Z,91.01
2019-01-12T18:25:02.674Z,91.01
2019-01-12T18:30:03.119Z,90.97
2019-01-12T18:35:02.426Z,90.98
2019-01-12T18:40:02.875Z,90.98
2019-01-12T18:45:03.371Z,90.97
2019-01-12T18:50:02.679Z,90.99
2019-01-12T18:55:03.119Z,90.99
2019-01-12T19:00:02.528Z,90.99
2019-01-12T19:05:02.956Z,90.96
2019-01-12T19:10:02.461Z,90.97
2019-01-12T19:15:02.905Z,90.96
2019-01-12T19:20:03.359Z,90.96
2019-01-12T19:25:02.772Z,90.96
2019-01-12T19:30:03.135Z,90.98
2019-01-12T19:35:02.541Z,90.96
2019-01-12T19:40:02.985Z,90.95
2019-01-12T19:45:02.395Z,90.93
2019-01-12T19:50:02.835Z,90.93
2019-01-12T19:55:03.205Z,90.95
2019-01-12T20:00:02.626Z,90.96
2019-01-12T20:05:03.047Z,90.97
2019-01-12T20:10:02.563Z,90.99
2019-01-12T20:15:02.108Z,91.0
2019-01-12T20:20:02.533Z,91.01
2019-01-12T20:25:02.867Z,91.02
2019-01-12T20:30:03.453Z,91.0
2019-01-12T20:35:02.824Z,91.0
2019-01-12T20:40:02.469Z,91.01
2019-01-12T20:45:02.905Z,91.0
2019-01-12T20:50:03.241Z,90.99
2019-01-12T20:55:02.670Z,90.99
2019-01-12T21:00:03.137Z,90.99
2019-01-12T21:05:02.520Z,90.99
2019-01-12T21:10:02.959Z,90.99
2019-01-12T21:15:03.500Z,91.01
2019-01-12T21:20:02.927Z,91.02
2019-01-12T21:25:03.290Z,91.04
2019-01-12T21:30:02.683Z,91.07
2019-01-12T21:35:03.035Z,91.07
2019-01-12T21:40:02.443Z,91.05
2019-01-12T21:45:02.825Z,91.04
2019-01-12T21:50:03.245Z,91.03
2019-01-12T21:55:02.652Z,91.05
2019-01-12T22:00:02.986Z,91.04
2019-01-12T22:05:02.410Z,91.05
2019-01-12T22:10:02.860Z,91.07
2019-01-12T22:15:03.198Z,91.06
2019-01-12T22:20:02.609Z,91.09
2019-01-12T22:25:02.959Z,91.1
2019-01-12T22:30:03.603Z,91.11
2019-01-12T22:35:02.938Z,91.12
2019-01-12T22:40:02.444Z,91.1
2019-01-12T22:45:02.923Z,91.1
2019-01-12T22:50:03.250Z,91.1
2019-01-12T22:55:02.649Z,91.09
2019-01-12T23:00:03.090Z,91.09
2019-01-12T23:05:02.503Z,91.04
2019-01-12T23:10:02.953Z,91.04
2019-01-12T23:15:03.298Z,91.04
2019-01-12T23:20:02.708Z,91.04
2019-01-12T23:25:03.050Z,91.04
2019-01-12T23:30:04.605Z,91.06
2019-01-12T23:35:03.331Z,91.09
2019-01-12T23:40:02.735Z,91.08
2019-01-12T23:45:03.132Z,91.11
2019-01-12T23:50:02.516Z,91.12
2019-01-12T23:55:02.953Z,91.13
